createdAt,value
2022-12-25T00:00:34.382Z,1009.28
2022-12-25T00:01:34.046Z,1009.34
2022-12-25T00:02:34.295Z,1009.28
2022-12-25T00:03:34.467Z,1009.35
2022-12-25T00:04:34.464Z,1009.40
2022-12-25T00:05:34.615Z,1009.38
2022-12-25T00:06:34.764Z,1009.46
2022-12-25T00:07:34.897Z,1009.49
2022-12-25T00:08:35.043Z,1009.46
2022-12-25T00:09:35.151Z,1009.43
2022-12-25T00:10:39.837Z,1009.41
2022-12-25T00:11:36.463Z,1009.42
2022-12-25T00:12:35.600Z,1009.41
2022-12-25T00:13:35.757Z,1009.50
2022-12-25T00:14:35.929Z,1009.50
2022-12-25T00:15:36.052Z,1009.44
2022-12-25T00:16:36.252Z,1009.44
2022-12-25T00:17:36.357Z,1009.35
2022-12-25T00:18:36.470Z,1009.38
2022-12-25T00:19:36.626Z,1009.44
2022-12-25T00:20:36.715Z,1009.43
2022-12-25T00:21:36.833Z,1009.44
2022-12-25T00:22:36.954Z,1009.39
2022-12-25T00:23:37.093Z,1009.43
2022-12-25T00:24:37.261Z,1009.41
2022-12-25T00:25:37.391Z,1009.42
2022-12-25T00:26:37.522Z,1009.46
2022-12-25T00:27:37.678Z,1009.45
2022-12-25T00:28:37.855Z,1009.45
2022-12-25T00:29:37.991Z,1009.41
2022-12-25T00:30:38.144Z,1009.37
2022-12-25T00:31:38.404Z,1009.31
2022-12-25T00:32:38.477Z,1009.28
2022-12-25T00:33:38.624Z,1009.24
2022-12-25T00:34:38.754Z,1009.26
2022-12-25T00:35:38.902Z,1009.25
2022-12-25T00:36:41.832Z,1009.26
2022-12-25T00:37:39.147Z,1009.24
2022-12-25T00:38:39.284Z,1009.23
2022-12-25T00:39:39.390Z,1009.26
2022-12-25T00:40:39.552Z,1009.31
2022-12-25T00:41:39.662Z,1009.24
2022-12-25T00:42:39.833Z,1009.22
2022-12-25T00:43:40.178Z,1009.24
2022-12-25T00:44:40.123Z,1009.23
2022-12-25T00:45:40.312Z,1009.25
2022-12-25T00:46:40.408Z,1009.27
2022-12-25T00:47:40.539Z,1009.27
2022-12-25T00:48:40.663Z,1009.25
2022-12-25T00:49:40.803Z,1009.31
2022-12-25T00:50:40.989Z,1009.30
2022-12-25T00:51:41.041Z,1009.32
2022-12-25T00:52:41.172Z,1009.28
2022-12-25T00:53:41.301Z,1009.25
2022-12-25T00:54:41.437Z,1009.26
2022-12-25T00:55:41.574Z,1009.20
2022-12-25T00:56:41.700Z,1009.23
2022-12-25T00:57:41.854Z,1009.22
2022-12-25T00:58:41.969Z,1009.23
2022-12-25T00:59:42.096Z,1009.26
2022-12-25T01:00:42.209Z,1009.29
2022-12-25T01:01:42.601Z,1009.25
2022-12-25T01:02:42.552Z,1009.21
2022-12-25T01:03:42.605Z,1009.22
2022-12-25T01:04:42.757Z,1009.35
2022-12-25T01:05:42.878Z,1009.32
2022-12-25T01:06:43.026Z,1009.30
2022-12-25T01:07:43.157Z,1009.37
2022-12-25T01:08:43.300Z,1009.25
2022-12-25T01:09:43.447Z,1009.23
2022-12-25T01:10:43.578Z,1009.20
2022-12-25T01:11:43.746Z,1009.16
2022-12-25T01:12:43.911Z,1009.19
2022-12-25T01:13:43.972Z,1009.17
2022-12-25T01:14:44.145Z,1009.19
2022-12-25T01:15:44.300Z,1009.18
2022-12-25T01:16:44.470Z,1009.19
2022-12-25T01:17:44.597Z,1009.16
2022-12-25T01:18:44.747Z,1009.16
2022-12-25T01:19:44.854Z,1009.09
2022-12-25T01:20:44.977Z,1009.16
2022-12-25T01:21:45.086Z,1009.15
2022-12-25T01:22:45.229Z,1009.18
2022-12-25T01:23:45.377Z,1009.15
2022-12-25T01:24:45.507Z,1009.11
2022-12-25T01:25:45.666Z,1009.13
2022-12-25T01:26:45.783Z,1009.12
2022-12-25T01:27:45.895Z,1009.11
2022-12-25T01:28:46.052Z,1009.13
2022-12-25T01:29:46.163Z,1009.14
2022-12-25T01:30:46.283Z,1009.14
2022-12-25T01:31:46.444Z,1009.15
2022-12-25T01:32:46.563Z,1009.12
2022-12-25T01:33:46.694Z,1009.13
2022-12-25T01:34:50.602Z,1009.08
2022-12-25T01:35:47.965Z,1009.08
2022-12-25T01:36:47.075Z,1008.97
2022-12-25T01:37:47.183Z,1009.00
2022-12-25T01:38:47.331Z,1008.93
2022-12-25T01:39:47.472Z,1008.98
2022-12-25T01:40:47.591Z,1008.94
2022-12-25T01:41:47.710Z,1008.89
2022-12-25T01:42:47.833Z,1008.93
2022-12-25T01:43:47.993Z,1008.96
2022-12-25T01:44:48.124Z,1008.91
2022-12-25T01:45:48.336Z,1008.92
2022-12-25T01:46:48.390Z,1008.96
2022-12-25T01:47:48.503Z,1008.99
2022-12-25T01:48:48.625Z,1009.06
2022-12-25T01:49:48.753Z,1009.05
2022-12-25T01:50:48.899Z,1009.08
2022-12-25T01:51:49.020Z,1009.13
2022-12-25T01:52:49.141Z,1009.09
2022-12-25T01:53:49.301Z,1009.07
2022-12-25T01:54:49.408Z,1009.09
2022-12-25T01:55:49.508Z,1009.08
2022-12-25T01:56:49.626Z,1009.15
2022-12-25T01:57:49.783Z,1009.20
2022-12-25T01:58:49.913Z,1009.20
2022-12-25T01:59:50.026Z,1009.22
2022-12-25T02:00:50.285Z,1009.21
2022-12-25T02:01:50.487Z,1009.17
2022-12-25T02:02:50.606Z,1009.15
2022-12-25T02:03:50.609Z,1009.18
2022-12-25T02:04:50.774Z,1009.13
2022-12-25T02:05:50.904Z,1009.18
2022-12-25T02:06:51.053Z,1009.16
2022-12-25T02:07:51.184Z,1009.16
2022-12-25T02:08:51.302Z,1009.20
2022-12-25T02:09:51.472Z,1009.16
2022-12-25T02:10:51.541Z,1009.19
2022-12-25T02:11:51.662Z,1009.12
2022-12-25T02:12:51.790Z,1009.11
2022-12-25T02:13:51.910Z,1009.06
2022-12-25T02:14:52.070Z,1009.08
2022-12-25T02:15:52.253Z,1009.09
2022-12-25T02:16:58.292Z,1009.07
2022-12-25T02:17:53.482Z,1009.04
2022-12-25T02:18:52.591Z,1009.06
2022-12-25T02:19:52.721Z,1009.09
2022-12-25T02:20:52.829Z,1009.08
2022-12-25T02:21:52.975Z,1009.03
2022-12-25T02:22:53.149Z,1009.08
2022-12-25T02:23:53.268Z,1009.09
2022-12-25T02:24:54.827Z,1009.13
2022-12-25T02:25:53.533Z,1009.08
2022-12-25T02:26:53.701Z,1009.18
2022-12-25T02:27:53.822Z,1009.15
2022-12-25T02:28:53.948Z,1009.16
2022-12-25T02:29:54.100Z,1009.17
2022-12-25T02:30:54.220Z,1009.10
2022-12-25T02:31:54.439Z,1009.04
2022-12-25T02:32:54.538Z,1009.09
2022-12-25T02:33:54.663Z,1009.07
2022-12-25T02:34:54.801Z,1009.14
2022-12-25T02:35:54.976Z,1009.08
2022-12-25T02:36:55.122Z,1009.15
2022-12-25T02:37:55.296Z,1009.16
2022-12-25T02:38:55.494Z,1009.16
2022-12-25T02:39:55.567Z,1009.15
2022-12-25T02:40:55.729Z,1009.08
2022-12-25T02:41:55.864Z,1009.10
2022-12-25T02:42:56.003Z,1009.11
2022-12-25T02:43:56.159Z,1009.18
2022-12-25T02:44:56.285Z,1009.18
2022-12-25T02:45:56.462Z,1009.21
2022-12-25T02:46:56.519Z,1009.17
2022-12-25T02:47:56.632Z,1009.19
2022-12-25T02:48:56.760Z,1009.19
2022-12-25T02:49:56.856Z,1009.15
2022-12-25T02:50:57.015Z,1009.20
2022-12-25T02:51:57.134Z,1009.22
2022-12-25T02:52:57.331Z,1009.21
2022-12-25T02:53:57.373Z,1009.21
2022-12-25T02:54:57.537Z,1009.18
2022-12-25T02:55:57.634Z,1009.22
2022-12-25T02:56:57.766Z,1009.22
2022-12-25T02:57:57.906Z,1009.25
2022-12-25T02:58:58.000Z,1009.28
2022-12-25T02:59:58.128Z,1009.20
2022-12-25T03:00:58.316Z,1009.31
2022-12-25T03:01:58.559Z,1009.28
2022-12-25T03:02:58.567Z,1009.28
2022-12-25T03:03:58.710Z,1009.23
2022-12-25T03:04:58.866Z,1009.31
2022-12-25T03:05:59.015Z,1009.30
2022-12-25T03:06:59.142Z,1009.32
2022-12-25T03:07:59.339Z,1009.30
2022-12-25T03:08:59.405Z,1009.33
2022-12-25T03:09:59.561Z,1009.29
2022-12-25T03:10:59.690Z,1009.29
2022-12-25T03:11:59.784Z,1009.30
2022-12-25T03:12:59.923Z,1009.20
2022-12-25T03:14:00.059Z,1009.21
2022-12-25T03:15:00.234Z,1009.18
2022-12-25T03:16:00.364Z,1009.14
2022-12-25T03:17:00.559Z,1009.10
2022-12-25T03:18:00.636Z,1009.13
2022-12-25T03:19:00.771Z,1009.14
2022-12-25T03:20:00.921Z,1009.14
2022-12-25T03:21:01.032Z,1009.13
2022-12-25T03:22:01.166Z,1009.12
2022-12-25T03:23:01.350Z,1009.10
2022-12-25T03:24:01.466Z,1009.13
2022-12-25T03:25:01.628Z,1009.07
2022-12-25T03:26:01.803Z,1009.09
2022-12-25T03:27:01.922Z,1009.10
2022-12-25T03:28:02.074Z,1009.06
2022-12-25T03:29:02.156Z,1009.09
2022-12-25T03:30:02.314Z,1009.11
2022-12-25T03:31:02.643Z,1009.10
2022-12-25T03:32:02.603Z,1009.12
2022-12-25T03:33:13.534Z,1009.08
2022-12-25T03:34:03.933Z,1009.05
2022-12-25T03:35:03.049Z,1009.01
2022-12-25T03:36:03.190Z,1009.02
2022-12-25T03:37:03.337Z,1008.98
2022-12-25T03:38:03.477Z,1008.98
2022-12-25T03:39:03.576Z,1008.98
2022-12-25T03:40:03.692Z,1008.97
2022-12-25T03:41:03.820Z,1009.01
2022-12-25T03:42:03.966Z,1009.03
2022-12-25T03:43:04.092Z,1008.96
2022-12-25T03:44:04.245Z,1008.93
2022-12-25T03:45:04.367Z,1008.86
2022-12-25T03:46:04.525Z,1008.88
2022-12-25T03:47:04.606Z,1008.81
2022-12-25T03:48:04.861Z,1008.85
2022-12-25T03:49:04.904Z,1008.83
2022-12-25T03:50:05.102Z,1008.83
2022-12-25T03:51:05.162Z,1008.77
2022-12-25T03:52:05.304Z,1008.77
2022-12-25T03:53:05.441Z,1008.75
2022-12-25T03:54:05.582Z,1008.70
2022-12-25T03:55:05.691Z,1008.67
2022-12-25T03:56:05.857Z,1008.63
2022-12-25T03:57:05.994Z,1008.60
2022-12-25T03:58:06.133Z,1008.54
2022-12-25T03:59:06.235Z,1008.49
2022-12-25T04:00:06.429Z,1008.54
2022-12-25T04:01:06.636Z,1008.54
2022-12-25T04:02:06.800Z,1008.59
2022-12-25T04:03:06.785Z,1008.60
2022-12-25T04:04:06.926Z,1008.56
2022-12-25T04:05:07.051Z,1008.60
2022-12-25T04:06:07.295Z,1008.55
2022-12-25T04:07:07.281Z,1008.50
2022-12-25T04:08:07.393Z,1008.41
2022-12-25T04:09:07.514Z,1008.40
2022-12-25T04:10:07.640Z,1008.46
2022-12-25T04:11:07.773Z,1008.41
2022-12-25T04:12:07.909Z,1008.46
2022-12-25T04:13:08.812Z,1008.44
2022-12-25T04:14:08.175Z,1008.47
2022-12-25T04:15:08.300Z,1008.48
2022-12-25T04:16:08.549Z,1008.49
2022-12-25T04:17:08.565Z,1008.52
2022-12-25T04:18:08.698Z,1008.48
2022-12-25T04:19:08.811Z,1008.53
2022-12-25T04:20:08.954Z,1008.54
2022-12-25T04:21:09.061Z,1008.50
2022-12-25T04:22:09.181Z,1008.53
2022-12-25T04:23:09.310Z,1008.54
2022-12-25T04:24:09.439Z,1008.58
2022-12-25T04:25:09.561Z,1008.56
2022-12-25T04:26:09.691Z,1008.59
2022-12-25T04:27:09.834Z,1008.66
2022-12-25T04:28:09.983Z,1008.61
2022-12-25T04:29:10.092Z,1008.63
2022-12-25T04:30:10.255Z,1008.69
2022-12-25T04:31:10.449Z,1008.64
2022-12-25T04:32:10.537Z,1008.65
2022-12-25T04:33:10.679Z,1008.66
2022-12-25T04:34:10.803Z,1008.54
2022-12-25T04:35:10.926Z,1008.57
2022-12-25T04:36:11.068Z,1008.54
2022-12-25T04:37:11.241Z,1008.55
2022-12-25T04:38:11.381Z,1008.57
2022-12-25T04:39:11.496Z,1008.60
2022-12-25T04:40:11.617Z,1008.52
2022-12-25T04:41:11.770Z,1008.52
2022-12-25T04:42:11.928Z,1008.51
2022-12-25T04:43:11.988Z,1008.59
2022-12-25T04:44:12.180Z,1008.49
2022-12-25T04:45:12.301Z,1008.52
2022-12-25T04:46:12.457Z,1008.52
2022-12-25T04:47:12.564Z,1008.52
2022-12-25T04:48:12.701Z,1008.52
2022-12-25T04:49:12.813Z,1008.60
2022-12-25T04:50:12.937Z,1008.56
2022-12-25T04:51:13.099Z,1008.56
2022-12-25T04:52:13.244Z,1008.65
2022-12-25T04:53:13.352Z,1008.60
2022-12-25T04:54:13.486Z,1008.61
2022-12-25T04:55:13.589Z,1008.66
2022-12-25T04:56:13.702Z,1008.67
2022-12-25T04:57:13.834Z,1008.72
2022-12-25T04:58:13.949Z,1008.69
2022-12-25T04:59:14.070Z,1008.64
2022-12-25T05:00:14.211Z,1008.66
2022-12-25T05:01:14.501Z,1008.62
2022-12-25T05:02:14.566Z,1008.64
2022-12-25T05:03:14.693Z,1008.63
2022-12-25T05:04:14.698Z,1008.60
2022-12-25T05:05:14.814Z,1008.66
2022-12-25T05:06:14.934Z,1008.58
2022-12-25T05:07:15.095Z,1008.63
2022-12-25T05:08:15.237Z,1008.57
2022-12-25T05:09:15.366Z,1008.59
2022-12-25T05:10:15.542Z,1008.54
2022-12-25T05:11:15.670Z,1008.57
2022-12-25T05:12:15.821Z,1008.53
2022-12-25T05:13:15.924Z,1008.43
2022-12-25T05:14:16.086Z,1008.50
2022-12-25T05:15:16.228Z,1008.49
2022-12-25T05:16:16.477Z,1008.53
2022-12-25T05:17:16.515Z,1008.57
2022-12-25T05:18:16.635Z,1008.59
2022-12-25T05:19:16.769Z,1008.56
2022-12-25T05:20:16.921Z,1008.55
2022-12-25T05:21:17.054Z,1008.57
2022-12-25T05:22:17.163Z,1008.52
2022-12-25T05:23:17.286Z,1008.47
2022-12-25T05:24:17.406Z,1008.47
2022-12-25T05:25:17.526Z,1008.45
2022-12-25T05:26:17.674Z,1008.48
2022-12-25T05:27:17.819Z,1008.46
2022-12-25T05:28:17.939Z,1008.44
2022-12-25T05:29:18.047Z,1008.49
2022-12-25T05:30:18.176Z,1008.49
2022-12-25T05:31:18.414Z,1008.50
2022-12-25T05:32:18.418Z,1008.49
2022-12-25T05:33:18.576Z,1008.45
2022-12-25T05:34:18.697Z,1008.46
2022-12-25T05:35:18.847Z,1008.38
2022-12-25T05:36:19.025Z,1008.46
2022-12-25T05:37:19.153Z,1008.44
2022-12-25T05:38:19.267Z,1008.42
2022-12-25T05:39:19.403Z,1008.41
2022-12-25T05:40:19.632Z,1008.40
2022-12-25T05:41:19.691Z,1008.45
2022-12-25T05:42:19.807Z,1008.38
2022-12-25T05:43:19.976Z,1008.40
2022-12-25T05:44:20.103Z,1008.40
2022-12-25T05:45:20.260Z,1008.39
2022-12-25T05:46:20.410Z,1008.37
2022-12-25T05:47:21.304Z,1008.35
2022-12-25T05:48:20.711Z,1008.37
2022-12-25T05:49:20.857Z,1008.35
2022-12-25T05:50:21.017Z,1008.41
2022-12-25T05:51:21.148Z,1008.40
2022-12-25T05:52:21.311Z,1008.33
2022-12-25T05:53:21.441Z,1008.37
2022-12-25T05:54:21.663Z,1008.33
2022-12-25T05:55:21.784Z,1008.30
2022-12-25T05:56:21.918Z,1008.30
2022-12-25T05:57:22.091Z,1008.28
2022-12-25T05:58:22.255Z,1008.26
2022-12-25T05:59:22.418Z,1008.30
2022-12-25T06:00:22.567Z,1008.28
2022-12-25T06:01:22.710Z,1008.40
2022-12-25T06:02:23.042Z,1008.38
2022-12-25T06:03:23.082Z,1008.35
2022-12-25T06:04:23.119Z,1008.28
2022-12-25T06:05:23.243Z,1008.36
2022-12-25T06:06:23.430Z,1008.33
2022-12-25T06:07:23.508Z,1008.29
2022-12-25T06:08:23.631Z,1008.28
2022-12-25T06:09:23.752Z,1008.18
2022-12-25T06:10:23.880Z,1008.25
2022-12-25T06:11:24.011Z,1008.28
2022-12-25T06:12:24.157Z,1008.27
2022-12-25T06:13:24.321Z,1008.36
2022-12-25T06:14:24.472Z,1008.39
2022-12-25T06:15:24.619Z,1008.39
2022-12-25T06:16:24.815Z,1008.38
2022-12-25T06:17:24.850Z,1008.25
2022-12-25T06:18:25.000Z,1008.20
2022-12-25T06:19:25.136Z,1008.21
2022-12-25T06:20:25.285Z,1008.17
2022-12-25T06:21:25.403Z,1008.20
2022-12-25T06:22:25.529Z,1008.25
2022-12-25T06:23:25.760Z,1008.24
2022-12-25T06:24:25.862Z,1008.20
2022-12-25T06:25:25.991Z,1008.17
2022-12-25T06:26:26.119Z,1008.06
2022-12-25T06:27:26.232Z,1008.08
2022-12-25T06:28:26.345Z,1008.01
2022-12-25T06:29:26.479Z,1008.03
2022-12-25T06:30:26.650Z,1008.03
2022-12-25T06:31:26.851Z,1007.99
2022-12-25T06:32:26.969Z,1008.00
2022-12-25T06:33:27.145Z,1008.00
2022-12-25T06:34:27.269Z,1007.96
2022-12-25T06:35:27.416Z,1007.91
2022-12-25T06:36:27.576Z,1007.91
2022-12-25T06:37:27.677Z,1007.88
2022-12-25T06:38:27.805Z,1007.90
2022-12-25T06:39:27.964Z,1007.95
2022-12-25T06:40:28.121Z,1007.88
2022-12-25T06:41:28.228Z,1007.86
2022-12-25T06:42:28.345Z,1007.87
2022-12-25T06:43:28.468Z,1007.91
2022-12-25T06:44:28.587Z,1007.87
2022-12-25T06:45:28.784Z,1007.81
2022-12-25T06:46:28.874Z,1007.83
2022-12-25T06:47:28.987Z,1007.85
2022-12-25T06:48:29.122Z,1007.77
2022-12-25T06:49:29.275Z,1007.81
2022-12-25T06:50:29.406Z,1007.74
2022-12-25T06:51:29.552Z,1007.72
2022-12-25T06:52:29.648Z,1007.69
2022-12-25T06:53:35.287Z,1007.66
2022-12-25T06:54:30.984Z,1007.67
2022-12-25T06:55:30.137Z,1007.61
2022-12-25T06:56:30.307Z,1007.58
2022-12-25T06:57:30.395Z,1007.61
2022-12-25T06:58:30.546Z,1007.56
2022-12-25T06:59:30.693Z,1007.50
2022-12-25T07:00:30.835Z,1007.56
2022-12-25T07:01:31.062Z,1007.56
2022-12-25T07:02:31.291Z,1007.59
2022-12-25T07:03:31.316Z,1007.68
2022-12-25T07:04:31.417Z,1007.68
2022-12-25T07:05:31.572Z,1007.71
2022-12-25T07:06:33.176Z,1007.75
2022-12-25T07:07:31.829Z,1007.81
2022-12-25T07:08:31.966Z,1007.84
2022-12-25T07:09:32.116Z,1007.87
2022-12-25T07:10:32.288Z,1007.94
2022-12-25T07:11:33.383Z,1007.85
2022-12-25T07:12:32.601Z,1007.72
2022-12-25T07:13:32.717Z,1007.69
2022-12-25T07:14:32.968Z,1007.59
2022-12-25T07:15:33.713Z,1007.58
2022-12-25T07:16:33.250Z,1007.60
2022-12-25T07:17:33.235Z,1007.52
2022-12-25T07:18:33.364Z,1007.57
2022-12-25T07:19:33.515Z,1007.63
2022-12-25T07:20:33.659Z,1007.62
2022-12-25T07:21:33.812Z,1007.64
2022-12-25T07:22:33.953Z,1007.56
2022-12-25T07:23:34.083Z,1007.55
2022-12-25T07:24:34.213Z,1007.42
2022-12-25T07:25:37.462Z,1007.47
2022-12-25T07:26:34.453Z,1007.40
2022-12-25T07:27:34.598Z,1007.36
2022-12-25T07:28:34.724Z,1007.38
2022-12-25T07:29:34.841Z,1007.28
2022-12-25T07:30:34.953Z,1007.23
2022-12-25T07:31:35.104Z,1007.22
2022-12-25T07:32:36.461Z,1007.20
2022-12-25T07:33:35.337Z,1007.17
2022-12-25T07:34:35.467Z,1007.14
2022-12-25T07:35:35.621Z,1007.12
2022-12-25T07:36:35.761Z,1007.10
2022-12-25T07:37:35.921Z,1007.11
2022-12-25T07:38:36.069Z,1007.11
2022-12-25T07:39:36.214Z,1007.08
2022-12-25T07:40:36.347Z,1007.07
2022-12-25T07:41:36.469Z,1007.09
2022-12-25T07:42:36.596Z,1007.11
2022-12-25T07:43:36.731Z,1007.11
2022-12-25T07:44:36.887Z,1007.16
2022-12-25T07:45:37.056Z,1007.20
2022-12-25T07:46:37.182Z,1007.26
2022-12-25T07:47:37.821Z,1007.26
2022-12-25T07:48:37.449Z,1007.27
2022-12-25T07:49:37.591Z,1007.27
2022-12-25T07:50:37.721Z,1007.30
2022-12-25T07:51:37.890Z,1007.28
2022-12-25T07:52:43.479Z,1007.27
2022-12-25T07:53:39.164Z,1007.34
2022-12-25T07:54:38.312Z,1007.34
2022-12-25T07:55:38.433Z,1007.30
2022-12-25T07:56:38.593Z,1007.35
2022-12-25T07:57:38.719Z,1007.34
2022-12-25T07:58:38.875Z,1007.33
2022-12-25T07:59:39.020Z,1007.44
2022-12-25T08:00:39.200Z,1007.43
2022-12-25T08:01:39.463Z,1007.41
2022-12-25T08:02:39.642Z,1007.44
2022-12-25T08:03:40.501Z,1007.39
2022-12-25T08:04:39.674Z,1007.36
2022-12-25T08:05:39.819Z,1007.34
2022-12-25T08:06:39.954Z,1007.33
2022-12-25T08:07:40.113Z,1007.35
2022-12-25T08:08:40.257Z,1007.40
2022-12-25T08:09:40.487Z,1007.41
2022-12-25T08:10:40.536Z,1007.42
2022-12-25T08:11:40.675Z,1007.50
2022-12-25T08:12:40.840Z,1007.41
2022-12-25T08:13:40.968Z,1007.46
2022-12-25T08:14:41.371Z,1007.32
2022-12-25T08:15:41.229Z,1007.25
2022-12-25T08:16:41.461Z,1007.09
2022-12-25T08:17:41.533Z,1007.06
2022-12-25T08:18:41.652Z,1006.97
2022-12-25T08:19:41.783Z,1006.99
2022-12-25T08:20:41.895Z,1006.97
2022-12-25T08:21:42.040Z,1007.02
2022-12-25T08:22:42.207Z,1007.05
2022-12-25T08:23:42.438Z,1007.04
2022-12-25T08:24:42.457Z,1007.03
2022-12-25T08:25:42.747Z,1007.01
2022-12-25T08:26:42.701Z,1007.06
2022-12-25T08:27:42.830Z,1007.10
2022-12-25T08:28:42.970Z,1007.11
2022-12-25T08:29:43.188Z,1007.14
2022-12-25T08:30:44.317Z,1007.21
2022-12-25T08:31:46.578Z,1007.30
2022-12-25T08:32:44.503Z,1007.34
2022-12-25T08:33:44.015Z,1007.31
2022-12-25T08:34:44.595Z,1007.25
2022-12-25T08:35:43.932Z,1007.23
2022-12-25T08:36:44.076Z,1007.12
2022-12-25T08:37:44.249Z,1007.11
2022-12-25T08:38:44.332Z,1007.15
2022-12-25T08:39:44.500Z,1007.26
2022-12-25T08:40:44.657Z,1007.25
2022-12-25T08:41:46.245Z,1007.40
2022-12-25T08:42:44.927Z,1007.40
2022-12-25T08:43:45.049Z,1007.42
2022-12-25T08:44:45.116Z,1007.50
2022-12-25T08:45:45.296Z,1007.49
2022-12-25T08:46:45.405Z,1007.49
2022-12-25T08:47:45.497Z,1007.42
2022-12-25T08:48:45.652Z,1007.44
2022-12-25T08:49:45.882Z,1007.41
2022-12-25T08:50:46.704Z,1007.42
2022-12-25T08:51:46.142Z,1007.44
2022-12-25T08:52:46.245Z,1007.49
2022-12-25T08:53:46.411Z,1007.45
2022-12-25T08:54:46.556Z,1007.46
2022-12-25T08:55:46.946Z,1007.48
2022-12-25T08:56:46.833Z,1007.48
2022-12-25T08:57:46.985Z,1007.51
2022-12-25T08:58:47.096Z,1007.50
2022-12-25T08:59:47.256Z,1007.52
2022-12-25T09:00:48.114Z,1007.43
2022-12-25T09:01:47.714Z,1007.41
2022-12-25T09:02:47.774Z,1007.36
2022-12-25T09:03:47.938Z,1007.35
2022-12-25T09:04:47.980Z,1007.33
2022-12-25T09:05:48.119Z,1007.29
2022-12-25T09:06:48.273Z,1007.27
2022-12-25T09:07:48.500Z,1007.30
2022-12-25T09:08:49.995Z,1007.29
2022-12-25T09:09:48.753Z,1007.29
2022-12-25T09:10:48.901Z,1007.23
2022-12-25T09:11:49.062Z,1007.18
2022-12-25T09:12:49.202Z,1007.17
2022-12-25T09:13:49.364Z,1007.22
2022-12-25T09:14:49.469Z,1007.22
2022-12-25T09:15:49.677Z,1007.23
2022-12-25T09:16:49.742Z,1007.21
2022-12-25T09:17:50.617Z,1007.22
2022-12-25T09:18:50.074Z,1007.15
2022-12-25T09:19:50.257Z,1007.18
2022-12-25T09:20:50.382Z,1007.27
2022-12-25T09:21:50.543Z,1007.28
2022-12-25T09:22:50.716Z,1007.24
2022-12-25T09:23:50.851Z,1007.14
2022-12-25T09:24:51.006Z,1007.13
2022-12-25T09:25:51.164Z,1007.12
2022-12-25T09:26:51.316Z,1007.11
2022-12-25T09:27:51.473Z,1007.15
2022-12-25T09:28:52.738Z,1007.15
2022-12-25T09:29:51.773Z,1007.18
2022-12-25T09:30:51.922Z,1007.18
2022-12-25T09:31:52.112Z,1007.12
2022-12-25T09:32:52.257Z,1007.09
2022-12-25T09:33:52.332Z,1007.13
2022-12-25T09:34:52.420Z,1007.10
2022-12-25T09:35:53.285Z,1007.21
2022-12-25T09:36:52.711Z,1007.13
2022-12-25T09:37:52.861Z,1007.16
2022-12-25T09:38:53.066Z,1007.16
2022-12-25T09:39:53.080Z,1007.21
2022-12-25T09:40:53.210Z,1007.22
2022-12-25T09:41:53.341Z,1007.20
2022-12-25T09:42:53.494Z,1007.21
2022-12-25T09:43:53.676Z,1007.23
2022-12-25T09:44:53.733Z,1007.25
2022-12-25T09:45:53.888Z,1007.31
2022-12-25T09:46:54.148Z,1007.23
2022-12-25T09:47:54.212Z,1007.24
2022-12-25T09:48:55.809Z,1007.22
2022-12-25T09:49:54.591Z,1007.11
2022-12-25T09:50:54.672Z,1006.99
2022-12-25T09:51:54.799Z,1006.99
2022-12-25T09:52:54.937Z,1007.00
2022-12-25T09:53:55.372Z,1007.08
2022-12-25T09:54:55.242Z,1007.17
2022-12-25T09:55:55.358Z,1007.18
2022-12-25T09:56:55.487Z,1007.12
2022-12-25T09:57:55.637Z,1007.17
2022-12-25T09:58:55.811Z,1007.18
2022-12-25T09:59:55.983Z,1007.21
2022-12-25T10:00:56.057Z,1007.21
2022-12-25T10:01:56.288Z,1007.28
2022-12-25T10:02:56.604Z,1007.28
2022-12-25T10:03:56.566Z,1007.36
2022-12-25T10:04:56.639Z,1007.30
2022-12-25T10:05:56.788Z,1007.35
2022-12-25T10:06:56.955Z,1007.28
2022-12-25T10:07:57.048Z,1007.37
2022-12-25T10:08:57.191Z,1007.35
2022-12-25T10:09:57.291Z,1007.37
2022-12-25T10:10:57.431Z,1007.38
2022-12-25T10:11:57.586Z,1007.41
2022-12-25T10:12:57.726Z,1007.37
2022-12-25T10:13:57.886Z,1007.26
2022-12-25T10:14:58.051Z,1007.18
2022-12-25T10:15:58.249Z,1007.14
2022-12-25T10:16:58.338Z,1007.07
2022-12-25T10:17:58.475Z,1007.03
2022-12-25T10:18:58.628Z,1006.96
2022-12-25T10:19:58.793Z,1006.92
2022-12-25T10:20:58.880Z,1006.84
2022-12-25T10:21:59.041Z,1006.79
2022-12-25T10:22:59.168Z,1006.80
2022-12-25T10:23:59.337Z,1006.78
2022-12-25T10:24:59.468Z,1006.78
2022-12-25T10:25:59.616Z,1006.78
2022-12-25T10:26:59.756Z,1006.73
2022-12-25T10:27:59.888Z,1006.68
2022-12-25T10:29:00.044Z,1006.74
2022-12-25T10:30:00.205Z,1006.75
2022-12-25T10:31:00.391Z,1006.81
2022-12-25T10:32:00.505Z,1006.87
2022-12-25T10:33:00.631Z,1006.85
2022-12-25T10:34:00.839Z,1006.77
2022-12-25T10:35:00.936Z,1006.69
2022-12-25T10:36:01.085Z,1006.54
2022-12-25T10:37:01.248Z,1006.41
2022-12-25T10:38:01.394Z,1006.41
2022-12-25T10:39:01.522Z,1006.49
2022-12-25T10:40:01.682Z,1006.48
2022-12-25T10:41:01.758Z,1006.50
2022-12-25T10:42:01.918Z,1006.47
2022-12-25T10:43:02.060Z,1006.48
2022-12-25T10:44:02.188Z,1006.45
2022-12-25T10:45:02.322Z,1006.50
2022-12-25T10:46:02.518Z,1006.49
2022-12-25T10:47:02.604Z,1006.51
2022-12-25T10:48:07.141Z,1006.55
2022-12-25T10:49:03.886Z,1006.53
2022-12-25T10:50:03.046Z,1006.58
2022-12-25T10:51:03.131Z,1006.62
2022-12-25T10:52:03.274Z,1006.59
2022-12-25T10:53:03.357Z,1006.62
2022-12-25T10:54:03.505Z,1006.66
2022-12-25T10:55:03.657Z,1006.64
2022-12-25T10:56:03.726Z,1006.68
2022-12-25T10:57:03.898Z,1006.65
2022-12-25T10:58:03.973Z,1006.59
2022-12-25T10:59:04.096Z,1006.63
2022-12-25T11:00:04.242Z,1006.63
2022-12-25T11:01:04.386Z,1006.64
2022-12-25T11:02:04.665Z,1006.59
2022-12-25T11:03:04.860Z,1006.63
2022-12-25T11:04:04.860Z,1006.61
2022-12-25T11:05:04.974Z,1006.61
2022-12-25T11:06:05.096Z,1006.69
2022-12-25T11:07:05.264Z,1006.60
2022-12-25T11:08:05.403Z,1006.57
2022-12-25T11:09:05.524Z,1006.53
2022-12-25T11:10:06.221Z,1006.45
2022-12-25T11:11:05.784Z,1006.40
2022-12-25T11:12:05.928Z,1006.37
2022-12-25T11:13:06.025Z,1006.41
2022-12-25T11:14:06.192Z,1006.35
2022-12-25T11:15:06.328Z,1006.36
2022-12-25T11:16:06.531Z,1006.28
2022-12-25T11:17:06.601Z,1006.21
2022-12-25T11:18:06.885Z,1006.23
2022-12-25T11:19:06.844Z,1006.20
2022-12-25T11:20:06.974Z,1006.19
2022-12-25T11:21:07.112Z,1006.23
2022-12-25T11:22:07.283Z,1006.27
2022-12-25T11:23:07.372Z,1006.28
2022-12-25T11:24:07.512Z,1006.26
2022-12-25T11:25:07.663Z,1006.18
2022-12-25T11:26:07.801Z,1006.18
2022-12-25T11:27:07.952Z,1006.12
2022-12-25T11:28:08.097Z,1006.11
2022-12-25T11:29:08.550Z,1006.10
2022-12-25T11:30:14.333Z,1006.05
2022-12-25T11:31:09.608Z,1006.10
2022-12-25T11:32:08.727Z,1006.08
2022-12-25T11:33:08.875Z,1006.03
2022-12-25T11:34:09.022Z,1005.96
2022-12-25T11:35:09.153Z,1005.91
2022-12-25T11:36:09.313Z,1005.83
2022-12-25T11:37:09.474Z,1005.85
2022-12-25T11:38:09.629Z,1005.75
2022-12-25T11:39:09.737Z,1005.80
2022-12-25T11:40:09.906Z,1005.75
2022-12-25T11:41:10.053Z,1005.73
2022-12-25T11:42:10.203Z,1005.69
2022-12-25T11:43:10.333Z,1005.68
2022-12-25T11:44:10.474Z,1005.65
2022-12-25T11:45:10.644Z,1005.68
2022-12-25T11:46:10.843Z,1005.63
2022-12-25T11:47:10.940Z,1005.68
2022-12-25T11:48:11.112Z,1005.74
2022-12-25T11:49:11.294Z,1005.70
2022-12-25T11:50:11.532Z,1005.69
2022-12-25T11:51:11.598Z,1005.67
2022-12-25T11:52:11.774Z,1005.72
2022-12-25T11:53:11.844Z,1005.68
2022-12-25T11:54:12.331Z,1005.68
2022-12-25T11:55:12.074Z,1005.64
2022-12-25T11:56:12.235Z,1005.64
2022-12-25T11:57:12.384Z,1005.62
2022-12-25T11:58:12.524Z,1005.58
2022-12-25T11:59:17.894Z,1005.58
2022-12-25T12:00:13.839Z,1005.59
2022-12-25T12:01:12.921Z,1005.51
2022-12-25T12:02:13.246Z,1005.40
2022-12-25T12:03:13.273Z,1005.40
2022-12-25T12:04:13.390Z,1005.42
2022-12-25T12:05:13.440Z,1005.42
2022-12-25T12:06:13.558Z,1005.46
2022-12-25T12:07:13.692Z,1005.44